createdAt,value
2018-03-11T00:00:10.986Z,0
2018-03-11T00:01:33.282Z,0
2018-03-11T00:02:54.930Z,0
2018-03-11T00:04:16.845Z,0
2018-03-11T00:05:38.731Z,0
2018-03-11T00:07:01.144Z,0
2018-03-11T00:08:23.055Z,0
2018-03-11T00:09:44.694Z,0
2018-03-11T00:11:06.625Z,0
2018-03-11T00:12:28.232Z,0
2018-03-11T00:13:49.858Z,0
2018-03-11T00:15:11.996Z,0
2018-03-11T00:16:33.910Z,0
2018-03-11T00:17:55.626Z,0
2018-03-11T00:19:17.588Z,0
2018-03-11T00:20:39.557Z,0
2018-03-11T00:22:00.911Z,0
2018-03-11T00:23:22.544Z,0
2018-03-11T00:24:44.165Z,0
2018-03-11T00:26:06.338Z,0
2018-03-11T00:27:28.257Z,0
2018-03-11T00:28:50.431Z,0
2018-03-11T00:30:11.889Z,0
2018-03-11T00:31:33.826Z,0
2018-03-11T00:32:55.470Z,0
2018-03-11T00:34:17.700Z,0
2018-03-11T00:35:39.474Z,0
2018-03-11T00:37:01.124Z,0
2018-03-11T00:38:22.560Z,0
2018-03-11T00:39:43.979Z,0
2018-03-11T00:41:05.655Z,0
2018-03-11T00:42:27.562Z,0
2018-03-11T00:43:49.726Z,0
2018-03-11T00:45:11.458Z,0
2018-03-11T00:46:33.396Z,0
2018-03-11T00:47:55.080Z,0
2018-03-11T00:49:16.981Z,0
2018-03-11T00:50:38.900Z,0
2018-03-11T00:52:00.814Z,0
2018-03-11T00:53:22.981Z,0
2018-03-11T00:54:44.903Z,0
2018-03-11T00:56:06.587Z,0
2018-03-11T00:57:28.511Z,0
2018-03-11T00:58:50.215Z,0
2018-03-11T01:00:11.849Z,0
2018-03-11T01:01:33.823Z,0
2018-03-11T01:02:55.500Z,0
2018-03-11T01:04:17.150Z,0
2018-03-11T01:05:39.356Z,0
2018-03-11T01:07:00.970Z,0
2018-03-11T01:08:22.309Z,0
2018-03-11T01:09:43.941Z,0
2018-03-11T01:11:05.675Z,0
2018-03-11T01:12:27.566Z,0
2018-03-11T01:13:48.970Z,0
2018-03-11T01:15:10.909Z,0
2018-03-11T01:16:32.804Z,0
2018-03-11T01:17:54.972Z,0
2018-03-11T01:19:16.854Z,0
2018-03-11T01:20:38.731Z,0
2018-03-11T01:22:00.602Z,0
2018-03-11T01:23:22.491Z,0
2018-03-11T01:24:44.229Z,0
2018-03-11T01:26:06.567Z,0
2018-03-11T01:27:28.517Z,0
2018-03-11T01:28:50.425Z,0
2018-03-11T01:30:12.610Z,0
2018-03-11T01:31:34.227Z,0
2018-03-11T01:32:56.088Z,0
2018-03-11T01:34:17.432Z,0
2018-03-11T01:35:39.424Z,0
2018-03-11T01:37:01.043Z,0
2018-03-11T01:38:23.188Z,0
2018-03-11T01:39:45.328Z,0
2018-03-11T01:41:07.493Z,0
2018-03-11T01:42:29.640Z,0
2018-03-11T01:43:51.777Z,0
2018-03-11T01:45:13.916Z,0
2018-03-11T01:46:36.141Z,0
2018-03-11T01:47:58.024Z,0
2018-03-11T01:49:20.220Z,0
2018-03-11T01:50:41.845Z,0
2018-03-11T01:52:03.709Z,0
2018-03-11T01:53:25.712Z,0
2018-03-11T01:54:47.852Z,0
2018-03-11T01:56:10.018Z,0
2018-03-11T01:57:31.379Z,0
2018-03-11T01:58:53.298Z,0
2018-03-11T02:00:15.538Z,0
2018-03-11T02:02:09.551Z,0
2018-03-11T02:03:31.688Z,0
2018-03-11T02:04:53.378Z,0
2018-03-11T02:06:15.014Z,0
2018-03-11T02:07:37.273Z,0
2018-03-11T02:08:58.901Z,0
2018-03-11T02:10:19.991Z,0
2018-03-11T02:11:41.122Z,0
2018-03-11T02:13:02.742Z,0
2018-03-11T02:14:24.411Z,0
2018-03-11T02:15:46.293Z,0
2018-03-11T02:17:07.901Z,0
2018-03-11T02:18:29.848Z,0
2018-03-11T02:19:51.990Z,0
2018-03-11T02:21:14.131Z,0
2018-03-11T02:22:35.981Z,0
2018-03-11T02:23:57.840Z,0
2018-03-11T02:25:19.443Z,0
2018-03-11T02:26:41.622Z,0
2018-03-11T02:28:03.794Z,0
2018-03-11T02:29:25.413Z,0
2018-03-11T02:30:47.660Z,0
2018-03-11T02:32:09.039Z,0
2018-03-11T02:33:30.740Z,0
2018-03-11T02:34:52.630Z,0
2018-03-11T02:36:14.784Z,0
2018-03-11T02:37:36.413Z,0
2018-03-11T02:38:58.037Z,0
2018-03-11T02:40:19.952Z,0
2018-03-11T02:41:42.195Z,0
2018-03-11T02:43:04.373Z,0
2018-03-11T02:44:26.516Z,0
2018-03-11T02:45:48.132Z,0
2018-03-11T02:47:10.286Z,0
2018-03-11T02:48:31.231Z,0
2018-03-11T02:49:53.112Z,0
2018-03-11T02:51:14.711Z,0
2018-03-11T02:52:36.049Z,0
2018-03-11T02:53:57.931Z,0
2018-03-11T02:55:19.545Z,0
2018-03-11T02:56:41.513Z,0
2018-03-11T02:58:03.433Z,0
2018-03-11T02:59:25.310Z,0
2018-03-11T03:00:46.670Z,0
2018-03-11T03:02:08.592Z,0
2018-03-11T03:03:30.783Z,0
2018-03-11T03:04:53.074Z,0
2018-03-11T03:06:15.221Z,0
2018-03-11T03:07:37.112Z,0
2018-03-11T03:08:58.461Z,0
2018-03-11T03:10:20.083Z,0
2018-03-11T03:11:41.179Z,0
2018-03-11T03:13:03.322Z,0
2018-03-11T03:14:24.984Z,0
2018-03-11T03:15:47.235Z,0
2018-03-11T03:17:09.162Z,0
2018-03-11T03:18:30.912Z,0
2018-03-11T03:19:52.791Z,0
2018-03-11T03:21:14.747Z,0
2018-03-11T03:22:36.623Z,0
2018-03-11T03:23:58.362Z,0
2018-03-11T03:25:19.981Z,0
2018-03-11T03:26:41.642Z,0
2018-03-11T03:28:03.546Z,0
2018-03-11T03:29:25.415Z,0
2018-03-11T03:30:47.506Z,0
2018-03-11T03:32:09.537Z,0
2018-03-11T03:33:31.712Z,0
2018-03-11T03:34:53.321Z,0
2018-03-11T03:36:15.208Z,0
2018-03-11T03:37:36.560Z,0
2018-03-11T03:38:58.142Z,0
2018-03-11T03:40:20.418Z,0
2018-03-11T03:41:42.368Z,0
2018-03-11T03:43:03.984Z,0
2018-03-11T03:44:25.584Z,0
2018-03-11T03:45:47.200Z,0
2018-03-11T03:47:09.242Z,0
2018-03-11T03:48:30.939Z,0
2018-03-11T03:49:52.035Z,0
2018-03-11T03:51:13.379Z,0
2018-03-11T03:52:34.985Z,0
2018-03-11T03:53:56.605Z,0
2018-03-11T03:55:18.754Z,0
2018-03-11T03:56:40.637Z,0
2018-03-11T03:58:02.785Z,0
2018-03-11T03:59:24.655Z,0
2018-03-11T04:00:46.629Z,0
2018-03-11T04:02:08.242Z,0
2018-03-11T04:03:30.119Z,0
2018-03-11T04:04:51.722Z,0
2018-03-11T04:06:13.641Z,0
2018-03-11T04:07:34.986Z,0
2018-03-11T04:08:56.851Z,0
2018-03-11T04:10:18.999Z,0
2018-03-11T04:11:40.638Z,0
2018-03-11T04:13:02.592Z,0
2018-03-11T04:14:24.483Z,0
2018-03-11T04:15:46.379Z,0
2018-03-11T04:17:08.513Z,0
2018-03-11T04:18:29.609Z,0
2018-03-11T04:19:51.220Z,0
2018-03-11T04:21:13.367Z,0
2018-03-11T04:22:34.704Z,0
2018-03-11T04:23:56.317Z,0
2018-03-11T04:25:17.683Z,0
2018-03-11T04:26:39.574Z,0
2018-03-11T04:28:01.303Z,0
2018-03-11T04:29:23.183Z,0
2018-03-11T04:30:45.411Z,0
2018-03-11T04:32:07.375Z,0
2018-03-11T04:33:29.575Z,0
2018-03-11T04:34:51.447Z,0
2018-03-11T04:36:12.802Z,0
2018-03-11T04:37:34.987Z,0
2018-03-11T04:38:56.591Z,0
2018-03-11T04:40:18.225Z,0
2018-03-11T04:41:40.106Z,0
2018-03-11T04:43:01.536Z,0
2018-03-11T04:44:23.682Z,0
2018-03-11T04:45:45.042Z,0
2018-03-11T04:47:06.632Z,0
2018-03-11T04:48:28.553Z,0
2018-03-11T04:49:50.184Z,0
2018-03-11T04:51:11.516Z,0
2018-03-11T04:52:33.370Z,0
2018-03-11T04:53:54.990Z,0
2018-03-11T04:55:16.853Z,0
2018-03-11T04:56:38.464Z,0
2018-03-11T04:58:00.069Z,0
2018-03-11T04:59:21.422Z,0
2018-03-11T05:00:43.022Z,0
2018-03-11T05:02:05.005Z,0
2018-03-11T05:03:27.152Z,0
2018-03-11T05:04:49.094Z,0
2018-03-11T05:06:10.964Z,0
2018-03-11T05:07:32.926Z,0
2018-03-11T05:08:54.394Z,0
2018-03-11T05:10:16.572Z,0
2018-03-11T05:11:38.445Z,0
2018-03-11T05:13:00.089Z,0
2018-03-11T05:14:22.152Z,0
2018-03-11T05:15:43.753Z,0
2018-03-11T05:17:05.641Z,0
2018-03-11T05:18:27.312Z,0
2018-03-11T05:19:48.929Z,0
2018-03-11T05:21:11.174Z,0
2018-03-11T05:22:33.032Z,0
2018-03-11T05:23:54.698Z,4
2018-03-11T05:25:16.560Z,0
2018-03-11T05:26:38.273Z,4
2018-03-11T05:28:00.137Z,4
2018-03-11T05:29:21.478Z,8
2018-03-11T05:30:43.063Z,8
2018-03-11T05:32:05.263Z,8
2018-03-11T05:33:26.885Z,8
2018-03-11T05:34:49.085Z,16
2018-03-11T05:36:10.940Z,16
2018-03-11T05:37:32.286Z,20
2018-03-11T05:38:53.934Z,28
2018-03-11T05:40:15.342Z,36
2018-03-11T05:41:37.239Z,44
2018-03-11T05:42:58.327Z,52
2018-03-11T05:44:19.943Z,56
2018-03-11T05:45:41.844Z,64
2018-03-11T05:47:03.774Z,76
2018-03-11T05:48:25.382Z,84
2018-03-11T05:49:47.260Z,92
2018-03-11T05:51:08.875Z,108
2018-03-11T05:52:30.729Z,120
2018-03-11T05:53:52.865Z,132
2018-03-11T05:55:14.993Z,148
2018-03-11T05:56:36.616Z,160
2018-03-11T05:57:58.102Z,180
2018-03-11T05:59:19.838Z,204
2018-03-11T06:00:41.725Z,244
2018-03-11T06:02:03.342Z,292
2018-03-11T06:03:25.536Z,344
2018-03-11T06:04:47.663Z,392
2018-03-11T06:06:09.569Z,456
2018-03-11T06:07:30.933Z,540
2018-03-11T06:08:53.080Z,660
2018-03-11T06:10:14.422Z,792
2018-03-11T06:11:35.835Z,892
2018-03-11T06:12:57.437Z,972
2018-03-11T06:14:19.303Z,1108
2018-03-11T06:15:40.924Z,1276
2018-03-11T06:17:02.259Z,1476
2018-03-11T06:18:23.964Z,1724
2018-03-11T06:19:45.852Z,1936
2018-03-11T06:21:07.732Z,1956
2018-03-11T06:22:29.682Z,2036
2018-03-11T06:23:51.297Z,2236
2018-03-11T06:25:12.956Z,2472
2018-03-11T06:26:34.659Z,2704
2018-03-11T06:27:56.560Z,2852
2018-03-11T06:29:18.484Z,3012
2018-03-11T06:30:40.718Z,3264
2018-03-11T06:32:02.114Z,3408
2018-03-11T06:33:24.346Z,3508
2018-03-11T06:34:46.015Z,3684
2018-03-11T06:36:07.607Z,4108
2018-03-11T06:37:29.947Z,4464
2018-03-11T06:38:51.829Z,4784
2018-03-11T06:40:14.017Z,4968
2018-03-11T06:41:35.768Z,5032
2018-03-11T06:42:57.382Z,5484
2018-03-11T06:44:19.538Z,5344
2018-03-11T06:45:41.412Z,5556
2018-03-11T06:47:03.303Z,5736
2018-03-11T06:48:25.453Z,5900
2018-03-11T06:49:47.642Z,6040
2018-03-11T06:51:09.593Z,6000
2018-03-11T06:52:31.674Z,5928
2018-03-11T06:53:53.564Z,6184
2018-03-11T06:55:15.521Z,6884
2018-03-11T06:56:37.679Z,7184
2018-03-11T06:57:59.611Z,7156
2018-03-11T06:59:21.472Z,7724
2018-03-11T07:00:43.112Z,8164
2018-03-11T07:02:05.573Z,8048
2018-03-11T07:03:27.712Z,7688
2018-03-11T07:04:49.365Z,7692
2018-03-11T07:06:11.296Z,7820
2018-03-11T07:07:32.934Z,7460
2018-03-11T07:08:54.923Z,7328
2018-03-11T07:10:16.817Z,7212
2018-03-11T07:11:38.720Z,6936
2018-03-11T07:13:00.644Z,6124
2018-03-11T07:14:22.794Z,5640
2018-03-11T07:15:44.421Z,5788
2018-03-11T07:17:06.045Z,6544
2018-03-11T07:18:27.795Z,7152
2018-03-11T07:19:50.004Z,8368
2018-03-11T07:21:11.886Z,8592
2018-03-11T07:22:34.018Z,8276
2018-03-11T07:23:56.172Z,7936
2018-03-11T07:25:17.931Z,7736
2018-03-11T07:26:39.315Z,8076
2018-03-11T07:28:00.813Z,8388
2018-03-11T07:29:22.433Z,8816
2018-03-11T07:30:44.624Z,8288
2018-03-11T07:32:05.979Z,7932
2018-03-11T07:33:27.877Z,7988
2018-03-11T07:34:50.032Z,7520
2018-03-11T07:36:12.403Z,7492
2018-03-11T07:37:33.785Z,7116
2018-03-11T07:38:55.837Z,7812
2018-03-11T07:40:17.542Z,8236
2018-03-11T07:41:39.809Z,8336
2018-03-11T07:43:01.441Z,8088
2018-03-11T07:44:23.410Z,7712
2018-03-11T07:45:45.301Z,7796
2018-03-11T07:47:07.051Z,7864
2018-03-11T07:48:28.404Z,8656
2018-03-11T07:49:50.416Z,9148
2018-03-11T07:51:12.052Z,9212
2018-03-11T07:52:33.412Z,9220
2018-03-11T07:53:55.052Z,8976
2018-03-11T07:55:16.673Z,8900
2018-03-11T07:56:38.814Z,9104
2018-03-11T07:58:00.822Z,9572
2018-03-11T07:59:22.785Z,9880
2018-03-11T08:00:44.411Z,10084
2018-03-11T08:02:06.080Z,9860
2018-03-11T08:03:27.988Z,9892
2018-03-11T08:04:50.361Z,10028
2018-03-11T08:06:12.516Z,10296
2018-03-11T08:07:34.801Z,9936
2018-03-11T08:08:56.995Z,10100
2018-03-11T08:10:18.882Z,10032
2018-03-11T08:11:41.162Z,10308
2018-03-11T08:13:03.064Z,10272
2018-03-11T08:14:24.982Z,10448
2018-03-11T08:15:46.619Z,10556
2018-03-11T08:17:08.356Z,10680
2018-03-11T08:18:30.517Z,10652
2018-03-11T08:19:52.749Z,11076
2018-03-11T08:21:14.651Z,11208
2018-03-11T08:22:36.121Z,10368
2018-03-11T08:23:57.734Z,10156
2018-03-11T08:25:19.450Z,10108
2018-03-11T08:26:41.352Z,10068
2018-03-11T08:28:02.994Z,10184
2018-03-11T08:29:24.909Z,10348
2018-03-11T08:30:46.536Z,10448
2018-03-11T08:32:08.051Z,10444
2018-03-11T08:33:30.055Z,10572
2018-03-11T08:34:51.441Z,10704
2018-03-11T08:36:13.352Z,10384
2018-03-11T08:37:34.801Z,10328
2018-03-11T08:38:56.474Z,10312
2018-03-11T08:40:17.881Z,10204
2018-03-11T08:41:39.857Z,10156
2018-03-11T08:43:01.748Z,10184
2018-03-11T08:44:24.002Z,10632
2018-03-11T08:45:46.187Z,10620
2018-03-11T08:47:08.111Z,10532
2018-03-11T08:48:30.397Z,10276
2018-03-11T08:49:52.069Z,10168
2018-03-11T08:51:13.737Z,10016
2018-03-11T08:52:35.934Z,9860
2018-03-11T08:53:58.489Z,9792
2018-03-11T08:55:20.704Z,9828
2018-03-11T08:56:42.643Z,10012
2018-03-11T08:58:04.955Z,10272
2018-03-11T08:59:26.955Z,10408
2018-03-11T09:00:49.125Z,10412
2018-03-11T09:02:11.021Z,10420
2018-03-11T09:03:32.942Z,10308
2018-03-11T09:04:55.124Z,10248
2018-03-11T09:06:17.329Z,9968
2018-03-11T09:07:39.246Z,9780
2018-03-11T09:09:01.143Z,9688
2018-03-11T09:10:23.222Z,9596
2018-03-11T09:11:45.495Z,9524
2018-03-11T09:13:07.650Z,9492
2018-03-11T09:14:29.663Z,9640
2018-03-11T09:15:51.567Z,9848
2018-03-11T09:17:13.472Z,9948
2018-03-11T09:18:35.666Z,9988
2018-03-11T09:19:57.933Z,9920
2018-03-11T09:21:19.820Z,10024
2018-03-11T09:22:41.293Z,10412
2018-03-11T09:24:03.230Z,10672
2018-03-11T09:25:25.131Z,10828
2018-03-11T09:26:47.271Z,10660
2018-03-11T09:28:08.913Z,10384
2018-03-11T09:29:30.567Z,10420
2018-03-11T09:30:52.172Z,10260
2018-03-11T09:32:13.261Z,10004
2018-03-11T09:33:34.892Z,9564
2018-03-11T09:34:56.945Z,9068
2018-03-11T09:36:18.565Z,9228
2018-03-11T09:37:40.193Z,9424
2018-03-11T09:39:02.404Z,9528
2018-03-11T09:40:24.044Z,9600
2018-03-11T09:41:45.694Z,10008
2018-03-11T09:43:07.614Z,10316
2018-03-11T09:44:29.857Z,10416
2018-03-11T09:45:51.873Z,10552
2018-03-11T09:47:14.180Z,10552
2018-03-11T09:48:35.853Z,10624
2018-03-11T09:49:57.522Z,10516
2018-03-11T09:51:18.893Z,10252
2018-03-11T09:52:40.729Z,9696
2018-03-11T09:54:02.971Z,9132
2018-03-11T09:55:24.872Z,9276
2018-03-11T09:56:46.588Z,9452
2018-03-11T09:58:08.642Z,9652
2018-03-11T09:59:30.514Z,9676
2018-03-11T10:00:52.669Z,9716
2018-03-11T10:02:14.842Z,9652
2018-03-11T10:03:36.503Z,9684
2018-03-11T10:04:57.898Z,9884
2018-03-11T10:06:19.817Z,9800
2018-03-11T10:07:41.722Z,9904
2018-03-11T10:09:03.981Z,10264
2018-03-11T10:10:25.893Z,10680
2018-03-11T10:11:48.228Z,11216
2018-03-11T10:13:09.602Z,11732
2018-03-11T10:14:31.322Z,12080
2018-03-11T10:15:53.219Z,12356
2018-03-11T10:17:15.146Z,12456
2018-03-11T10:18:36.792Z,12628
2018-03-11T10:19:59.023Z,12964
2018-03-11T10:21:21.203Z,13240
2018-03-11T10:22:42.851Z,13040
2018-03-11T10:24:04.600Z,11784
2018-03-11T10:25:26.521Z,10292
2018-03-11T10:26:47.900Z,9652
2018-03-11T10:28:09.817Z,9672
2018-03-11T10:29:31.486Z,10440
2018-03-11T10:30:53.130Z,11256
2018-03-11T10:32:14.063Z,11920
2018-03-11T10:33:36.263Z,12732
2018-03-11T10:34:58.281Z,14144
2018-03-11T10:36:20.359Z,15132
2018-03-11T10:37:42.077Z,15120
2018-03-11T10:39:04.063Z,14564
2018-03-11T10:40:25.982Z,14072
2018-03-11T10:41:48.197Z,12780
2018-03-11T10:43:10.179Z,10652
2018-03-11T10:44:31.917Z,9580
2018-03-11T10:45:53.826Z,8832
2018-03-11T10:47:15.462Z,7844
2018-03-11T10:48:37.362Z,7248
2018-03-11T10:49:59.344Z,7700
2018-03-11T10:51:20.472Z,8084
2018-03-11T10:52:42.284Z,8104
2018-03-11T10:54:04.393Z,6772
2018-03-11T10:55:26.460Z,5996
2018-03-11T10:56:47.851Z,6132
2018-03-11T10:58:09.772Z,5340
2018-03-11T10:59:32.051Z,6880
2018-03-11T11:00:53.821Z,9220
2018-03-11T11:02:16.137Z,9040
2018-03-11T11:03:38.521Z,9756
2018-03-11T11:05:00.919Z,11476
2018-03-11T11:06:23.169Z,12488
2018-03-11T11:07:44.839Z,10876
2018-03-11T11:09:06.748Z,8020
2018-03-11T11:10:28.412Z,7184
2018-03-11T11:11:50.624Z,7232
2018-03-11T11:13:12.917Z,9840
2018-03-11T11:14:34.572Z,11608
2018-03-11T11:15:56.221Z,11408
2018-03-11T11:17:18.120Z,9984
2018-03-11T11:18:39.770Z,8376
2018-03-11T11:20:01.609Z,7576
2018-03-11T11:21:23.591Z,6892
2018-03-11T11:22:45.751Z,6992
2018-03-11T11:24:07.956Z,8268
2018-03-11T11:25:29.902Z,10820
2018-03-11T11:26:52.010Z,12220
2018-03-11T11:28:14.169Z,13436
2018-03-11T11:29:36.413Z,14312
2018-03-11T11:30:58.412Z,14628
2018-03-11T11:32:20.608Z,13312
2018-03-11T11:33:41.975Z,9728
2018-03-11T11:35:04.150Z,8764
2018-03-11T11:36:26.089Z,7496
2018-03-11T11:37:48.043Z,6140
2018-03-11T11:39:10.369Z,5096
2018-03-11T11:40:32.703Z,3476
2018-03-11T11:41:54.878Z,2812
2018-03-11T11:43:16.923Z,3076
2018-03-11T11:44:39.106Z,3940
2018-03-11T11:46:01.031Z,5148
2018-03-11T11:47:22.692Z,5208
2018-03-11T11:48:44.687Z,4192
2018-03-11T11:50:06.786Z,3464
2018-03-11T11:51:29.122Z,3068
2018-03-11T11:52:51.143Z,2756
2018-03-11T11:54:13.312Z,2408
2018-03-11T11:55:35.516Z,2140
2018-03-11T11:56:56.923Z,2140
2018-03-11T11:58:18.901Z,2524
2018-03-11T11:59:40.856Z,2900
2018-03-11T12:01:03.105Z,2984
2018-03-11T12:02:24.991Z,3080
2018-03-11T12:03:47.191Z,3112
2018-03-11T12:05:09.104Z,3744
2018-03-11T12:06:30.850Z,4892
2018-03-11T12:07:52.514Z,4684
2018-03-11T12:09:14.468Z,4972
2018-03-11T12:10:36.366Z,4632
2018-03-11T12:11:58.633Z,5184
2018-03-11T12:13:20.587Z,5236
2018-03-11T12:14:42.876Z,5240
2018-03-11T12:16:04.824Z,5448
2018-03-11T12:17:26.187Z,5536
2018-03-11T12:18:47.676Z,5296
2018-03-11T12:20:09.606Z,4848
2018-03-11T12:21:31.536Z,4568
2018-03-11T12:22:53.225Z,4576
2018-03-11T12:24:15.242Z,4632
2018-03-11T12:25:36.613Z,4220
2018-03-11T12:26:58.519Z,3912
2018-03-11T12:28:20.171Z,3872
2018-03-11T12:29:42.112Z,3768
2018-03-11T12:31:04.087Z,3692
2018-03-11T12:32:25.783Z,3516
2018-03-11T12:33:47.435Z,3188
2018-03-11T12:35:09.608Z,3092
2018-03-11T12:36:30.873Z,3336
2018-03-11T12:37:53.116Z,3876
2018-03-11T12:39:14.794Z,4920
2018-03-11T12:40:36.730Z,6044
2018-03-11T12:41:58.780Z,5836
2018-03-11T12:43:20.464Z,5068
2018-03-11T12:44:42.651Z,4668
2018-03-11T12:46:04.892Z,4720
2018-03-11T12:47:26.911Z,4636
2018-03-11T12:48:48.842Z,4424
2018-03-11T12:50:11.046Z,4112
2018-03-11T12:51:33.029Z,4052
2018-03-11T12:52:54.668Z,4508
2018-03-11T12:54:16.572Z,5504
2018-03-11T12:55:38.555Z,6536
2018-03-11T12:57:00.212Z,7928
2018-03-11T12:58:22.191Z,9228
2018-03-11T12:59:43.833Z,10356
2018-03-11T13:01:05.594Z,11396
2018-03-11T13:02:27.825Z,11916
2018-03-11T13:03:50.033Z,12340
2018-03-11T13:05:11.708Z,12596
2018-03-11T13:06:33.771Z,12964
2018-03-11T13:07:55.439Z,13136
2018-03-11T13:09:16.573Z,12444
2018-03-11T13:10:38.500Z,11552
2018-03-11T13:12:00.684Z,10708
2018-03-11T13:13:22.314Z,10448
2018-03-11T13:14:44.266Z,10748
2018-03-11T13:16:05.924Z,10608
2018-03-11T13:17:27.826Z,10608
2018-03-11T13:18:49.227Z,10492
2018-03-11T13:20:10.576Z,10204
2018-03-11T13:21:32.252Z,10252
2018-03-11T13:22:54.293Z,10076
2018-03-11T13:24:16.469Z,10216
2018-03-11T13:25:38.675Z,10204
2018-03-11T13:27:00.931Z,9708
2018-03-11T13:28:22.833Z,8832
2018-03-11T13:29:45.016Z,8004
2018-03-11T13:31:07.260Z,7384
2018-03-11T13:32:29.453Z,7028
2018-03-11T13:33:51.394Z,7268
2018-03-11T13:35:13.313Z,7088
2018-03-11T13:36:35.535Z,7176
2018-03-11T13:37:57.704Z,8132
2018-03-11T13:39:19.645Z,9420
2018-03-11T13:40:41.872Z,10516
2018-03-11T13:42:04.062Z,11380
2018-03-11T13:43:26.414Z,12116
2018-03-11T13:44:48.607Z,12528
2018-03-11T13:46:10.783Z,12608
2018-03-11T13:47:32.975Z,12552
2018-03-11T13:48:55.247Z,12348
2018-03-11T13:50:17.163Z,11948
2018-03-11T13:51:39.425Z,11316
2018-03-11T13:53:01.763Z,10756
2018-03-11T13:54:23.733Z,10344
2018-03-11T13:55:46.139Z,10284
2018-03-11T13:57:08.097Z,10248
2018-03-11T13:58:30.303Z,9772
2018-03-11T13:59:52.166Z,9184
2018-03-11T14:01:14.120Z,8584
2018-03-11T14:02:35.820Z,8480
2018-03-11T14:03:57.752Z,9028
2018-03-11T14:05:19.673Z,9320
2018-03-11T14:06:41.895Z,9432
2018-03-11T14:08:03.629Z,9508
2018-03-11T14:09:25.825Z,9516
2018-03-11T14:10:48.027Z,9540
2018-03-11T14:12:10.215Z,9516
2018-03-11T14:13:32.150Z,9376
2018-03-11T14:14:54.043Z,9032
2018-03-11T14:16:16.304Z,8768
2018-03-11T14:17:38.216Z,8468
2018-03-11T14:19:00.182Z,8024
2018-03-11T14:20:22.364Z,7600
2018-03-11T14:21:44.003Z,7232
2018-03-11T14:23:05.125Z,6920
2018-03-11T14:24:27.304Z,6952
2018-03-11T14:25:48.711Z,6964
2018-03-11T14:27:10.701Z,7000
2018-03-11T14:28:32.984Z,6972
2018-03-11T14:29:54.724Z,6840
2018-03-11T14:31:16.935Z,6700
2018-03-11T14:32:39.225Z,6824
2018-03-11T14:34:01.411Z,6908
2018-03-11T14:35:23.616Z,7040
2018-03-11T14:36:45.574Z,7044
2018-03-11T14:38:07.758Z,6972
2018-03-11T14:39:29.919Z,6716
2018-03-11T14:40:52.096Z,6760
2018-03-11T14:42:14.614Z,6244
2018-03-11T14:43:36.012Z,6328
2018-03-11T14:44:58.219Z,5592
2018-03-11T14:46:20.412Z,4656
2018-03-11T14:47:42.055Z,4148
2018-03-11T14:49:04.275Z,3692
2018-03-11T14:50:26.260Z,4476
2018-03-11T14:51:48.309Z,4828
2018-03-11T14:53:10.033Z,4704
2018-03-11T14:54:31.941Z,4792
2018-03-11T14:55:53.844Z,4352
2018-03-11T14:57:16.167Z,4096
2018-03-11T14:58:38.136Z,6140
2018-03-11T15:00:00.327Z,7384
2018-03-11T15:01:21.473Z,7608
2018-03-11T15:02:43.791Z,7384
2018-03-11T15:04:05.700Z,7000
2018-03-11T15:05:27.344Z,6644
2018-03-11T15:06:49.262Z,5896
2018-03-11T15:08:10.922Z,5312
2018-03-11T15:09:32.972Z,5228
2018-03-11T15:10:54.935Z,5092
2018-03-11T15:12:16.585Z,5500
2018-03-11T15:13:38.754Z,5672
2018-03-11T15:15:00.644Z,5736
2018-03-11T15:16:22.998Z,5600
2018-03-11T15:17:45.267Z,5292
2018-03-11T15:19:07.222Z,5204
2018-03-11T15:20:29.521Z,5172
2018-03-11T15:21:51.686Z,5032
2018-03-11T15:23:13.352Z,4972
2018-03-11T15:24:34.995Z,4960
2018-03-11T15:25:57.030Z,4980
2018-03-11T15:27:18.961Z,5072
2018-03-11T15:28:40.943Z,5180
2018-03-11T15:30:02.093Z,5268
2018-03-11T15:31:24.470Z,5188
2018-03-11T15:32:46.445Z,5164
2018-03-11T15:34:08.656Z,5156
2018-03-11T15:35:30.873Z,5124
2018-03-11T15:36:53.144Z,5116
2018-03-11T15:38:15.041Z,5096
2018-03-11T15:39:36.959Z,5056
2018-03-11T15:40:59.156Z,4936
2018-03-11T15:42:20.535Z,4772
2018-03-11T15:43:42.230Z,4548
2018-03-11T15:45:04.474Z,4288
2018-03-11T15:46:26.515Z,4008
2018-03-11T15:47:48.415Z,3760
2018-03-11T15:49:10.097Z,3656
2018-03-11T15:50:32.003Z,3628
2018-03-11T15:51:53.972Z,3616
2018-03-11T15:53:15.947Z,3600
2018-03-11T15:54:37.920Z,3576
2018-03-11T15:56:00.333Z,3536
2018-03-11T15:57:22.249Z,3476
2018-03-11T15:58:44.546Z,3356
2018-03-11T16:00:06.723Z,3204
2018-03-11T16:01:29.010Z,3048
2018-03-11T16:02:50.700Z,2920
2018-03-11T16:04:12.367Z,2788
2018-03-11T16:05:34.576Z,2636
2018-03-11T16:06:56.747Z,2524
2018-03-11T16:08:18.446Z,2456
2018-03-11T16:09:40.724Z,2364
2018-03-11T16:11:02.905Z,2236
2018-03-11T16:12:25.104Z,2104
2018-03-11T16:13:47.280Z,1972
2018-03-11T16:15:09.566Z,1852
2018-03-11T16:16:31.759Z,1772
2018-03-11T16:17:53.920Z,1700
2018-03-11T16:19:15.906Z,1612
2018-03-11T16:20:38.035Z,1516
2018-03-11T16:21:59.928Z,1424
2018-03-11T16:23:22.021Z,1368
2018-03-11T16:24:50.803Z,1316
2018-03-11T16:26:12.602Z,1252
2018-03-11T16:27:34.320Z,1176
2018-03-11T16:28:55.701Z,1076
2018-03-11T16:30:17.636Z,984
2018-03-11T16:31:40.169Z,888
2018-03-11T16:33:02.104Z,796
2018-03-11T16:34:24.125Z,716
2018-03-11T16:35:46.495Z,636
2018-03-11T16:37:08.679Z,560
2018-03-11T16:38:30.601Z,488
2018-03-11T16:39:52.543Z,468
2018-03-11T16:41:14.495Z,432
2018-03-11T16:42:36.404Z,400
2018-03-11T16:43:58.762Z,380
2018-03-11T16:45:20.962Z,368
2018-03-11T16:46:42.991Z,356
2018-03-11T16:48:04.656Z,344
2018-03-11T16:49:26.837Z,320
2018-03-11T16:50:49.241Z,304
2018-03-11T16:52:11.276Z,300
2018-03-11T16:53:33.244Z,300
2018-03-11T16:54:54.976Z,288
2018-03-11T16:56:17.230Z,284
2018-03-11T16:57:39.275Z,260
2018-03-11T16:59:01.192Z,252
2018-03-11T17:00:23.146Z,240
2018-03-11T17:01:44.841Z,220
2018-03-11T17:03:06.470Z,172
2018-03-11T17:04:28.224Z,152
2018-03-11T17:05:49.885Z,164
2018-03-11T17:07:11.564Z,168
2018-03-11T17:08:33.806Z,152
2018-03-11T17:09:56.174Z,120
2018-03-11T17:11:17.816Z,104
2018-03-11T17:12:39.891Z,108
2018-03-11T17:14:01.550Z,132
2018-03-11T17:15:23.184Z,168
2018-03-11T17:16:45.212Z,180
2018-03-11T17:18:07.140Z,184
2018-03-11T17:19:29.444Z,172
2018-03-11T17:20:52.000Z,152
2018-03-11T17:22:13.951Z,128
2018-03-11T17:23:35.360Z,108
2018-03-11T17:24:57.561Z,88
2018-03-11T17:26:19.757Z,76
2018-03-11T17:27:41.416Z,64
2018-03-11T17:29:03.368Z,52
2018-03-11T17:30:25.550Z,44
2018-03-11T17:31:47.206Z,36
2018-03-11T17:33:09.176Z,28
2018-03-11T17:34:31.135Z,28
2018-03-11T17:35:52.836Z,20
2018-03-11T17:37:14.753Z,16
2018-03-11T17:38:36.788Z,12
2018-03-11T17:39:58.786Z,12
2018-03-11T17:41:20.685Z,8
2018-03-11T17:42:42.636Z,4
2018-03-11T17:44:04.268Z,4
2018-03-11T17:45:26.254Z,0
2018-03-11T17:46:48.488Z,16
2018-03-11T17:48:10.788Z,16
2018-03-11T17:49:32.755Z,16
2018-03-11T17:50:54.740Z,12
2018-03-11T17:52:16.732Z,16
2018-03-11T17:53:38.700Z,16
2018-03-11T17:55:00.907Z,16
2018-03-11T17:56:22.836Z,16
2018-03-11T17:57:44.901Z,16
2018-03-11T17:59:06.835Z,12
2018-03-11T18:00:28.777Z,12
2018-03-11T18:01:50.489Z,12
2018-03-11T18:03:12.727Z,12
2018-03-11T18:04:34.661Z,12
2018-03-11T18:05:56.690Z,12
2018-03-11T18:07:18.668Z,12
2018-03-11T18:08:40.609Z,12
2018-03-11T18:10:03.118Z,12
2018-03-11T18:11:24.804Z,12
2018-03-11T18:12:46.905Z,12
2018-03-11T18:14:08.844Z,12
2018-03-11T18:15:31.367Z,12
2018-03-11T18:16:53.324Z,12
2018-03-11T18:18:15.560Z,12
2018-03-11T18:19:37.512Z,12
2018-03-11T18:21:00.046Z,12
2018-03-11T18:22:21.742Z,12
2018-03-11T18:23:43.380Z,12
2018-03-11T18:25:05.605Z,12
2018-03-11T18:26:28.184Z,12
2018-03-11T18:27:49.899Z,12
2018-03-11T18:29:11.839Z,12
2018-03-11T18:30:33.528Z,12
2018-03-11T18:31:55.318Z,12
2018-03-11T18:33:17.603Z,12
2018-03-11T18:34:39.282Z,12
2018-03-11T18:36:01.213Z,12
2018-03-11T18:37:23.150Z,12
2018-03-11T18:38:45.488Z,12
2018-03-11T18:40:07.455Z,12
2018-03-11T18:41:29.395Z,12
2018-03-11T18:42:51.110Z,12
2018-03-11T18:44:13.061Z,12
2018-03-11T18:45:35.146Z,12
2018-03-11T18:46:57.170Z,12